createdAt,value
2023-05-04T00:03:16.753Z,1008.61
2023-05-04T00:08:16.637Z,1008.55
2023-05-04T00:13:16.582Z,1008.47
2023-05-04T00:18:16.484Z,1008.38
2023-05-04T00:23:16.402Z,1008.35
2023-05-04T00:28:16.356Z,1008.32
2023-05-04T00:33:16.283Z,1008.23
2023-05-04T00:38:16.217Z,1008.18
2023-05-04T00:43:16.155Z,1008.17
2023-05-04T00:48:16.115Z,1008.12
2023-05-04T00:53:16.017Z,1008.02
2023-05-04T00:58:15.952Z,1008.03
2023-05-04T01:03:15.945Z,1008.02
2023-05-04T01:08:15.855Z,1007.98
2023-05-04T01:13:15.911Z,1008.05
2023-05-04T01:18:15.733Z,1008.08
2023-05-04T01:23:15.622Z,1008.13
2023-05-04T01:28:15.563Z,1008.12
2023-05-04T01:33:15.500Z,1008.15
2023-05-04T01:38:15.431Z,1008.25
2023-05-04T01:43:15.359Z,1008.15
2023-05-04T01:48:15.295Z,1008.18
2023-05-04T01:53:15.237Z,1008.17
2023-05-04T01:58:15.169Z,1008.11
2023-05-04T02:03:15.183Z,1008.09
2023-05-04T02:08:15.039Z,1008.11
2023-05-04T02:13:15.017Z,1008.05
2023-05-04T02:18:14.913Z,1007.95
2023-05-04T02:23:14.836Z,1007.92
2023-05-04T02:28:14.785Z,1007.98
2023-05-04T02:33:14.720Z,1008.00
2023-05-04T02:38:14.694Z,1007.99
2023-05-04T02:43:14.581Z,1008.01
2023-05-04T02:48:14.533Z,1007.99
2023-05-04T02:53:14.451Z,1007.99
2023-05-04T02:58:14.398Z,1007.90
2023-05-04T03:03:14.321Z,1007.91
2023-05-04T03:08:14.264Z,1007.97
2023-05-04T03:13:14.249Z,1008.01
2023-05-04T03:18:14.175Z,1008.02
2023-05-04T03:23:14.059Z,1008.02
2023-05-04T03:28:13.993Z,1007.99
2023-05-04T03:33:13.924Z,1008.03
2023-05-04T03:38:13.880Z,1007.93
2023-05-04T03:43:13.790Z,1007.98
2023-05-04T03:48:13.735Z,1008.01
2023-05-04T03:53:13.660Z,1008.00
2023-05-04T03:59:08.370Z,1008.01
2023-05-04T04:04:08.390Z,1007.96
2023-05-04T04:09:08.228Z,1007.99
2023-05-04T04:14:08.158Z,1007.96
2023-05-04T04:19:08.091Z,1007.95
2023-05-04T04:24:08.024Z,1007.93
2023-05-04T04:29:07.969Z,1007.91
2023-05-04T04:34:07.884Z,1007.93
2023-05-04T04:39:07.836Z,1007.91
2023-05-04T04:44:07.754Z,1007.85
2023-05-04T04:49:07.721Z,1007.80
2023-05-04T04:54:07.623Z,1007.86
2023-05-04T04:59:07.575Z,1007.74
2023-05-04T05:04:07.486Z,1007.70
2023-05-04T05:09:07.441Z,1007.71
2023-05-04T05:14:07.354Z,1007.71
2023-05-04T05:19:07.292Z,1007.71
2023-05-04T05:24:07.223Z,1007.76
2023-05-04T05:29:07.162Z,1007.78
2023-05-04T05:34:07.084Z,1007.68
2023-05-04T05:39:07.032Z,1007.74
2023-05-04T05:44:06.965Z,1007.71
2023-05-04T05:49:06.889Z,1007.71
2023-05-04T05:54:06.819Z,1007.70
2023-05-04T05:59:06.758Z,1007.64
2023-05-04T06:04:06.803Z,1007.62
2023-05-04T06:09:06.623Z,1007.53
2023-05-04T06:14:06.560Z,1007.47
2023-05-04T06:19:06.542Z,1007.39
2023-05-04T06:24:06.427Z,1007.38
2023-05-04T06:29:06.360Z,1007.37
2023-05-04T06:34:06.296Z,1007.33
2023-05-04T06:39:06.218Z,1007.30
2023-05-04T06:44:06.160Z,1007.33
2023-05-04T06:49:06.108Z,1007.31
2023-05-04T06:54:06.024Z,1007.32
2023-05-04T06:59:05.965Z,1007.32
2023-05-04T07:04:05.963Z,1007.34
2023-05-04T07:09:05.823Z,1007.32
2023-05-04T07:14:06.555Z,1007.26
2023-05-04T07:19:05.684Z,1007.23
2023-05-04T07:24:05.641Z,1007.23
2023-05-04T07:29:05.562Z,1007.24
2023-05-04T07:34:05.492Z,1007.19
2023-05-04T07:39:05.668Z,1007.08
2023-05-04T07:44:05.358Z,1007.06
2023-05-04T07:49:05.283Z,1007.06
2023-05-04T07:54:05.227Z,1007.10
2023-05-04T07:59:05.157Z,1007.02
2023-05-04T08:04:05.087Z,1006.93
2023-05-04T08:09:05.023Z,1006.89
2023-05-04T08:14:04.960Z,1006.88
2023-05-04T08:19:04.891Z,1006.81
2023-05-04T08:24:04.839Z,1006.84
2023-05-04T08:29:04.759Z,1006.79
2023-05-04T08:34:04.702Z,1006.73
2023-05-04T08:39:04.656Z,1006.71
2023-05-04T08:44:04.560Z,1006.77
2023-05-04T08:49:04.517Z,1006.77
2023-05-04T08:54:04.441Z,1006.67
2023-05-04T08:59:04.378Z,1006.70
2023-05-04T09:04:04.337Z,1006.75
2023-05-04T09:09:04.279Z,1006.66
2023-05-04T09:14:04.195Z,1006.68
2023-05-04T09:19:04.109Z,1006.71
2023-05-04T09:24:04.045Z,1006.63
2023-05-04T09:29:03.972Z,1006.57
2023-05-04T09:34:03.911Z,1006.57
2023-05-04T09:39:03.853Z,1006.50
2023-05-04T09:44:03.770Z,1006.46
2023-05-04T09:49:03.709Z,1006.44
2023-05-04T09:54:03.645Z,1006.40
2023-05-04T09:59:03.577Z,1006.34
2023-05-04T10:04:03.506Z,1006.17
2023-05-04T10:09:03.444Z,1006.19
2023-05-04T10:14:03.376Z,1006.08
2023-05-04T10:19:03.312Z,1006.14
2023-05-04T10:24:03.265Z,1006.04
2023-05-04T10:29:03.178Z,1005.98
2023-05-04T10:34:03.138Z,1005.92
2023-05-04T10:39:03.047Z,1005.89
2023-05-04T10:44:03.230Z,1005.81
2023-05-04T10:49:03.114Z,1005.73
2023-05-04T10:54:03.083Z,1005.64
2023-05-04T10:59:03.084Z,1005.69
2023-05-04T11:04:03.067Z,1005.56
2023-05-04T11:09:03.109Z,1005.47
2023-05-04T11:14:03.083Z,1005.47
2023-05-04T11:19:02.535Z,1005.40
2023-05-04T11:24:02.455Z,1005.34
2023-05-04T11:29:02.401Z,1005.25
2023-05-04T11:34:02.315Z,1005.26
2023-05-04T11:39:02.277Z,1005.17
2023-05-04T11:44:02.179Z,1005.11
2023-05-04T11:49:02.118Z,1005.12
2023-05-04T11:54:02.047Z,1005.05
2023-05-04T11:59:01.986Z,1005.00
2023-05-04T12:04:02.090Z,1005.06
2023-05-04T12:09:01.861Z,1004.96
2023-05-04T12:14:01.800Z,1005.00
2023-05-04T12:19:01.715Z,1004.98
2023-05-04T12:24:01.653Z,1004.88
2023-05-04T12:29:01.596Z,1004.86
2023-05-04T12:34:01.517Z,1004.85
2023-05-04T12:39:01.455Z,1004.73
2023-05-04T12:44:01.396Z,1004.69
2023-05-04T12:49:01.316Z,1004.69
2023-05-04T12:54:01.227Z,1004.61
2023-05-04T12:59:01.190Z,1004.50
2023-05-04T13:04:01.090Z,1004.47
2023-05-04T13:09:01.045Z,1004.36
2023-05-04T13:14:00.968Z,1004.25
2023-05-04T13:19:00.911Z,1004.19
2023-05-04T13:24:00.827Z,1004.18
2023-05-04T13:29:00.763Z,1004.15
2023-05-04T13:34:00.694Z,1004.07
2023-05-04T13:39:00.641Z,1004.02
2023-05-04T13:44:00.555Z,1004.01
2023-05-04T13:49:00.494Z,1003.93
2023-05-04T13:54:02.444Z,1003.86
2023-05-04T13:59:00.359Z,1003.75
2023-05-04T14:04:00.286Z,1003.73
2023-05-04T14:09:00.227Z,1003.69
2023-05-04T14:14:00.176Z,1003.64
2023-05-04T14:19:00.098Z,1003.63
2023-05-04T14:24:00.007Z,1003.47
2023-05-04T14:28:59.963Z,1003.35
2023-05-04T14:33:59.863Z,1003.32
2023-05-04T14:38:59.814Z,1003.40
2023-05-04T14:43:59.728Z,1003.28
2023-05-04T14:48:59.678Z,1003.25
2023-05-04T14:53:59.595Z,1003.02
2023-05-04T14:58:59.541Z,1003.06
2023-05-04T15:03:59.484Z,1003.02
2023-05-04T15:08:59.403Z,1002.96
2023-05-04T15:13:59.319Z,1002.86
2023-05-04T15:18:59.274Z,1002.80
2023-05-04T15:23:59.192Z,1002.79
2023-05-04T15:28:59.121Z,1002.68
2023-05-04T15:33:59.040Z,1002.72
2023-05-04T15:38:59.012Z,1002.74
2023-05-04T15:43:58.915Z,1002.60
2023-05-04T15:48:58.847Z,1002.62
2023-05-04T15:53:58.761Z,1002.58
2023-05-04T15:58:58.712Z,1002.51
2023-05-04T16:03:58.765Z,1002.49
2023-05-04T16:08:58.693Z,1002.40
2023-05-04T16:13:58.493Z,1002.27
2023-05-04T16:18:58.436Z,1002.32
2023-05-04T16:23:58.361Z,1002.29
2023-05-04T16:28:58.296Z,1002.18
2023-05-04T16:33:58.275Z,1002.14
2023-05-04T16:38:58.164Z,1002.15
2023-05-04T16:43:58.119Z,1002.01
2023-05-04T16:48:58.038Z,1001.98
2023-05-04T16:53:57.993Z,1001.95
2023-05-04T16:58:57.909Z,1001.93
2023-05-04T17:03:57.882Z,1001.84
2023-05-04T17:08:57.791Z,1001.80
2023-05-04T17:13:57.722Z,1001.80
2023-05-04T17:18:57.650Z,1001.70
2023-05-04T17:23:57.577Z,1001.69
2023-05-04T17:28:57.525Z,1001.74
2023-05-04T17:33:57.444Z,1001.69
2023-05-04T17:38:57.385Z,1001.66
2023-05-04T17:43:57.322Z,1001.63
2023-05-04T17:48:57.259Z,1001.60
2023-05-04T17:53:57.193Z,1001.59
2023-05-04T17:58:57.140Z,1001.64
2023-05-04T18:03:57.104Z,1001.64
2023-05-04T18:08:56.995Z,1001.62
2023-05-04T18:13:56.991Z,1001.67
2023-05-04T18:18:58.417Z,1001.73
2023-05-04T18:23:56.787Z,1001.78
2023-05-04T18:29:01.693Z,1001.87
2023-05-04T18:33:57.680Z,1001.90
2023-05-04T18:38:56.594Z,1001.89
2023-05-04T18:43:56.531Z,1001.94
2023-05-04T18:48:56.458Z,1001.98
2023-05-04T18:53:56.392Z,1002.02
2023-05-04T18:58:56.331Z,1002.05
2023-05-04T19:03:56.282Z,1001.99
2023-05-04T19:08:56.213Z,1002.04
2023-05-04T19:13:56.130Z,1002.10
2023-05-04T19:18:56.054Z,1002.10
2023-05-04T19:23:55.997Z,1002.15
2023-05-04T19:28:55.942Z,1002.13
2023-05-04T19:33:55.867Z,1002.13
2023-05-04T19:38:55.808Z,1002.06
2023-05-04T19:43:55.751Z,1002.10
2023-05-04T19:48:55.648Z,1002.12
2023-05-04T19:53:55.601Z,1002.12
2023-05-04T19:58:55.520Z,1002.14
2023-05-04T20:03:55.473Z,1002.13
2023-05-04T20:08:55.382Z,1002.08
2023-05-04T20:13:55.851Z,1002.09
2023-05-04T20:18:55.248Z,1002.04
2023-05-04T20:23:55.199Z,1002.02
2023-05-04T20:28:55.109Z,1002.07
2023-05-04T20:33:55.053Z,1002.08
2023-05-04T20:38:54.972Z,1002.05
2023-05-04T20:43:54.908Z,1002.07
2023-05-04T20:48:54.840Z,1001.94
2023-05-04T20:53:54.778Z,1001.96
2023-05-04T20:58:54.710Z,1001.90
2023-05-04T21:03:54.855Z,1001.90
2023-05-04T21:08:54.581Z,1001.85
2023-05-04T21:13:54.535Z,1001.84
2023-05-04T21:18:54.446Z,1001.85
2023-05-04T21:23:54.404Z,1001.84
2023-05-04T21:28:54.316Z,1001.84
2023-05-04T21:33:54.265Z,1001.87
2023-05-04T21:38:54.181Z,1001.93
2023-05-04T21:43:54.126Z,1001.88
2023-05-04T21:48:54.068Z,1001.82
2023-05-04T21:53:53.992Z,1001.78
2023-05-04T21:58:53.923Z,1001.78
2023-05-04T22:03:53.876Z,1001.76
2023-05-04T22:08:53.788Z,1001.68
2023-05-04T22:13:53.719Z,1001.65
2023-05-04T22:18:53.671Z,1001.58
2023-05-04T22:23:53.589Z,1001.59
2023-05-04T22:28:53.515Z,1001.58
2023-05-04T22:33:53.458Z,1001.51
2023-05-04T22:38:53.381Z,1001.55
2023-05-04T22:43:53.325Z,1001.55
2023-05-04T22:48:53.249Z,1001.54
2023-05-04T22:53:53.190Z,1001.54
2023-05-04T22:58:53.116Z,1001.54
2023-05-04T23:03:53.202Z,1001.56
2023-05-04T23:08:52.994Z,1001.54
2023-05-04T23:13:52.928Z,1001.59
2023-05-04T23:18:52.858Z,1001.59
2023-05-04T23:23:52.787Z,1001.53
2023-05-04T23:28:52.726Z,1001.62
2023-05-04T23:33:52.665Z,1001.60
2023-05-04T23:38:52.591Z,1001.52
2023-05-04T23:43:52.544Z,1001.50
2023-05-04T23:48:52.463Z,1001.46
2023-05-04T23:53:52.401Z,1001.51
2023-05-04T23:58:52.316Z,1001.41
